Time;durP1;ratioP1;P1;durP2;ratioP2;P2;SDS_P1;SDS_P2;PMS_P1;PMS_P2;Temp;Humidity;BMP_temperature;BMP_pressure;BME280_temperature;BME280_humidity;BME280_pressure;Samples;Min_cycle;Max_cycle;Signal;HPM_P1;HPM_P2
2022/04/19 00:01:41;;;;;;;12.48;8.85;;;;;;;9.33;54.25;101295.69;5271878;28;19916;-82
2022/04/19 00:04:13;;;;;;;9.90;8.57;;;;;;;9.33;54.34;101298.28;5270215;28;20044;-80
2022/04/19 00:06:45;;;;;;;14.40;8.67;;;;;;;9.19;54.97;101287.00;5257796;28;20490;-80
2022/04/19 00:09:17;;;;;;;14.93;9.07;;;;;;;9.02;55.72;101277.47;5257800;28;20028;-81
2022/04/19 00:11:48;;;;;;;9.90;8.40;;;;;;;9.02;55.37;101276.59;5258221;28;20024;-83
2022/04/19 00:14:20;;;;;;;11.90;9.23;;;;;;;8.85;55.79;101277.41;5258229;28;20033;-83
2022/04/19 00:16:51;;;;;;;11.13;8.60;;;;;;;8.79;55.98;101280.03;5240301;28;20036;-81
2022/04/19 00:19:25;;;;;;;14.13;9.73;;;;;;;8.82;56.23;101280.00;5258026;28;20052;-83
2022/04/19 00:21:57;;;;;;;11.57;9.70;;;;;;;8.73;56.25;101278.25;5258021;28;20878;-81
2022/04/19 00:24:28;;;;;;;17.43;10.00;;;;;;;8.83;55.93;101289.56;5257787;28;20031;-82
2022/04/19 00:26:59;;;;;;;13.63;10.10;;;;;;;8.67;56.23;101267.84;5258081;28;20037;-81
2022/04/19 00:29:31;;;;;;;14.10;10.33;;;;;;;8.62;57.11;101274.75;5257962;28;20518;-82
2022/04/19 00:32:03;;;;;;;13.77;10.73;;;;;;;8.59;57.23;101269.56;5259406;28;20025;-82
2022/04/19 00:34:34;;;;;;;10.93;9.43;;;;;;;8.50;57.11;101269.50;5260060;28;20561;-81
2022/04/19 00:37:06;;;;;;;13.20;9.43;;;;;;;8.48;57.73;101260.84;5259641;28;20024;-82
2022/04/19 00:39:38;;;;;;;11.73;10.07;;;;;;;8.53;57.66;101270.41;5259047;28;20447;-81
2022/04/19 00:42:09;;;;;;;16.53;11.03;;;;;;;8.45;58.05;101260.84;5259043;28;20029;-83
2022/04/19 00:44:41;;;;;;;15.13;10.43;;;;;;;8.32;57.91;101265.97;5259935;28;20025;-83
2022/04/19 00:47:15;;;;;;;15.87;10.23;;;;;;;8.29;58.09;101265.06;5258841;28;20028;-81
2022/04/19 00:49:47;;;;;;;12.63;10.15;;;;;;;8.07;58.90;101267.56;5258309;28;20017;-81
2022/04/19 00:52:18;;;;;;;14.38;10.05;;;;;;;8.12;58.70;101275.41;5257637;28;20032;-82
2022/04/19 00:54:50;;;;;;;12.47;10.37;;;;;;;8.05;59.30;101274.50;5257211;28;20044;-81
2022/04/19 00:57:24;;;;;;;13.20;10.70;;;;;;;7.97;59.17;101276.16;5257603;28;20033;-80
2022/04/19 00:59:57;;;;;;;13.25;11.20;;;;;;;7.77;59.21;101279.50;5258469;28;20086;-79
2022/04/19 01:02:28;;;;;;;;;;;;;;;8.06;56.04;101275.34;5259438;28;20108;-80
2022/04/19 01:05:00;;;;;;;12.38;10.52;;;;;;;7.78;59.58;101265.69;5271890;28;20449;-78
2022/04/19 01:07:32;;;;;;;13.67;10.73;;;;;;;7.82;59.88;101276.94;5268380;28;20028;-83
2022/04/19 01:10:05;;;;;;;15.77;11.15;;;;;;;7.82;60.15;101282.13;5274717;28;20021;-80
2022/04/19 01:15:26;;;;;;;14.80;10.45;;;;;;;7.75;59.95;101270.00;5267041;28;20482;-80
2022/04/19 01:18:02;;;;;;;14.50;10.90;;;;;;;7.67;60.37;101269.94;5261463;28;20119;-81
2022/04/19 01:20:34;;;;;;;14.50;10.95;;;;;;;7.58;60.58;101270.75;5260834;28;20105;-82
2022/04/19 01:23:05;;;;;;;21.15;12.18;;;;;;;7.54;61.04;101266.38;5242469;28;20059;-80
2022/04/19 01:25:37;;;;;;;15.63;10.63;;;;;;;7.50;61.02;101267.19;5261015;28;20028;-80
2022/04/19 01:28:08;;;;;;;14.13;11.73;;;;;;;7.38;61.86;101260.19;5272604;28;20032;-80
2022/04/19 01:30:43;;;;;;;16.07;11.90;;;;;;;7.29;61.96;101260.13;5279371;28;20028;-82
2022/04/19 01:33:14;;;;;;;14.60;12.35;;;;;;;7.28;62.31;101255.81;5279810;28;20005;-80
2022/04/19 01:35:46;;;;;;;13.93;11.73;;;;;;;7.18;61.64;101253.97;5280028;28;20070;-79
2022/04/19 01:38:17;;;;;;;16.00;12.03;;;;;;;7.14;61.89;101245.31;5277244;28;20028;-79
2022/04/19 01:40:48;;;;;;;18.53;13.00;;;;;;;7.12;61.91;101260.84;5275484;28;20033;-81
2022/04/19 01:43:20;;;;;;;13.60;11.27;;;;;;;7.08;62.11;101248.72;5274307;28;20035;-80
2022/04/19 01:45:51;;;;;;;16.83;11.40;;;;;;;7.07;62.49;101239.19;5277734;28;20029;-80
2022/04/19 01:48:23;;;;;;;15.87;11.90;;;;;;;7.06;62.63;101247.81;5276610;28;20024;-80
2022/04/19 01:50:54;;;;;;;18.33;12.43;;;;;;;6.97;63.33;101252.06;5277883;28;20032;-81
2022/04/19 01:53:27;;;;;;;15.03;12.57;;;;;;;6.95;63.42;101244.25;5278775;28;20033;-81
2022/04/19 01:55:58;;;;;;;17.20;12.57;;;;;;;6.94;63.41;101243.41;5278347;28;20052;-80
2022/04/19 01:58:29;;;;;;;15.90;12.37;;;;;;;6.90;63.39;101245.94;5278891;28;20016;-80
2022/04/19 02:01:01;;;;;;;16.43;12.43;;;;;;;6.97;63.17;101255.53;5279522;28;20048;-83
2022/04/19 02:03:34;;;;;;;19.60;12.00;;;;;;;6.90;63.45;101245.94;5278838;28;20024;-80
2022/04/19 02:06:09;;;;;;;15.35;11.57;;;;;;;6.89;63.89;101247.69;5278814;28;20025;-80
2022/04/19 02:08:40;;;;;;;19.58;11.65;;;;;;;6.86;63.72;101249.34;5278767;28;20013;-80
2022/04/19 02:11:12;;;;;;;15.10;12.63;;;;;;;6.84;63.99;101241.59;5277846;28;20044;-82
2022/04/19 02:13:43;;;;;;;13.57;11.63;;;;;;;6.82;64.02;101245.00;5276970;28;20041;-79
2022/04/19 02:16:14;;;;;;;19.37;12.03;;;;;;;6.80;64.08;101247.56;5278691;28;20063;-80
2022/04/19 02:18:46;;;;;;;21.10;13.47;;;;;;;6.67;64.85;101244.00;5279586;28;20055;-80
2022/04/19 02:21:17;;;;;;;18.77;12.60;;;;;;;6.70;64.51;101241.44;5276969;28;20036;-80
2022/04/19 02:23:48;;;;;;;16.27;13.27;;;;;;;6.61;65.28;101246.50;5258899;28;20048;-81
2022/04/19 02:26:23;;;;;;;17.50;14.00;;;;;;;6.52;65.09;101242.09;5277674;28;20033;-80
2022/04/19 02:28:55;;;;;;;18.80;13.77;;;;;;;6.48;65.63;101234.28;5275820;28;20020;-81
2022/04/19 02:31:27;;;;;;;16.67;13.27;;;;;;;6.44;65.42;101230.78;5277479;28;20044;-80
2022/04/19 02:33:59;;;;;;;16.75;13.75;;;;;;;6.35;66.11;101241.91;5277261;28;20037;-81
2022/04/19 02:36:31;;;;;;;17.23;14.57;;;;;;;6.35;66.09;101231.53;5277168;28;20541;-79
2022/04/19 02:39:02;;;;;;;16.93;13.57;;;;;;;6.25;66.49;101242.66;5277453;28;20049;-82
2022/04/19 02:41:34;;;;;;;15.90;13.10;;;;;;;6.20;66.75;101242.59;5277109;28;20029;-80
2022/04/19 02:44:08;;;;;;;15.80;13.00;;;;;;;6.15;66.57;101239.09;5276645;28;20025;-81
2022/04/19 02:46:39;;;;;;;15.77;14.18;;;;;;;6.17;67.00;101239.09;5269679;28;20023;-80
2022/04/19 02:49:10;;;;;;;19.67;13.93;;;;;;;6.17;67.20;101239.97;5254726;28;20025;-81
2022/04/19 02:51:42;;;;;;;19.80;14.67;;;;;;;6.10;67.36;101229.50;5254933;28;20133;-80
2022/04/19 02:54:13;;;;;;;19.83;13.77;;;;;;;6.09;67.15;101238.13;5254264;28;20052;-81
2022/04/19 02:56:45;;;;;;;16.97;14.10;;;;;;;6.06;67.54;101232.91;5236384;28;20511;-80
2022/04/19 02:59:16;;;;;;;16.43;13.33;;;;;;;6.08;67.52;101226.03;5254308;28;20021;-82
2022/04/19 03:01:48;;;;;;;19.77;14.23;;;;;;;6.05;67.93;101229.44;5254555;28;20215;-79
2022/04/19 03:04:20;;;;;;;15.57;13.30;;;;;;;5.99;67.58;101217.31;5254471;28;20056;-81
2022/04/19 03:06:51;;;;;;;17.65;14.07;;;;;;;6.01;67.86;101225.09;5254319;28;20426;-79
2022/04/19 03:09:22;;;;;;;18.70;14.17;;;;;;;6.00;67.84;101218.16;5254676;28;20028;-81
2022/04/19 03:11:54;;;;;;;20.40;14.47;;;;;;;5.98;68.58;101225.06;5254589;28;20029;-79
2022/04/19 03:14:25;;;;;;;30.33;15.20;;;;;;;5.88;69.13;101236.09;5253816;28;20041;-80
2022/04/19 03:16:57;;;;;;;21.07;14.17;;;;;;;5.91;68.88;101239.59;5254460;28;20033;-81
2022/04/19 03:19:28;;;;;;;20.73;14.00;;;;;;;5.66;69.60;101223.72;5254664;28;20029;-81
2022/04/19 03:21:59;;;;;;;18.23;15.07;;;;;;;5.66;69.76;101218.53;5254199;28;20448;-80
2022/04/19 03:30:14;;;;;;;28.63;17.13;;;;;;;5.55;71.01;101230.44;5253995;28;20447;-80
2022/04/19 03:32:45;;;;;;;25.65;16.35;;;;;;;5.57;71.09;101233.94;5254010;28;20036;-80
2022/04/19 03:35:17;;;;;;;20.23;15.13;;;;;;;5.52;71.08;101229.53;5254373;28;20232;-80
2022/04/19 03:37:49;;;;;;;19.23;15.27;;;;;;;5.51;71.36;101239.00;5254274;28;20036;-81
2022/04/19 03:40:20;;;;;;;24.20;16.53;;;;;;;5.52;71.74;101235.56;5255395;28;20105;-80
2022/04/19 03:42:54;;;;;;;23.70;16.43;;;;;;;5.48;71.63;101233.78;5257991;28;20806;-81
2022/04/19 03:45:25;;;;;;;24.13;16.10;;;;;;;5.46;71.48;101227.75;5257897;28;20491;-81
2022/04/19 03:47:57;;;;;;;22.17;15.73;;;;;;;5.46;71.84;101222.56;5257675;28;20025;-81
2022/04/19 03:50:28;;;;;;;27.07;15.83;;;;;;;5.44;72.08;101222.53;5258036;28;20476;-81
2022/04/19 03:53:00;;;;;;;26.97;16.13;;;;;;;5.45;71.97;101232.03;5258153;28;20084;-80
2022/04/19 03:55:31;;;;;;;17.83;14.77;;;;;;;5.42;72.41;101220.78;5257885;28;20105;-80
2022/04/19 03:58:03;;;;;;;22.93;15.10;;;;;;;5.36;72.39;101231.91;5239535;28;20075;-82
2022/04/19 04:00:35;;;;;;;22.02;14.80;;;;;;;5.32;72.94;101232.69;5257797;28;20127;-80
2022/04/19 04:03:06;;;;;;;25.43;15.47;;;;;;;5.27;73.44;101232.59;5257387;28;20111;-80
2022/04/19 04:05:38;;;;;;;19.27;15.40;;;;;;;5.28;72.75;101224.00;5257894;28;20472;-80
2022/04/19 04:08:10;;;;;;;24.30;15.40;;;;;;;5.24;73.39;101223.94;5257674;28;20032;-81
2022/04/19 04:10:41;;;;;;;24.03;16.67;;;;;;;5.30;73.11;101236.97;5257587;28;20029;-81
2022/04/19 04:13:12;;;;;;;23.07;15.47;;;;;;;5.32;72.61;101237.00;5257518;28;20029;-81
2022/04/19 04:15:44;;;;;;;19.93;15.60;;;;;;;5.29;73.11;101236.06;5257872;28;20112;-82
2022/04/19 04:18:15;;;;;;;21.77;14.13;;;;;;;5.23;72.93;101230.84;5257509;28;20051;-79
2022/04/19 04:20:47;;;;;;;23.23;15.00;;;;;;;5.21;73.38;101237.66;5258204;28;20048;-80
2022/04/19 04:23:18;;;;;;;21.33;14.67;;;;;;;5.15;73.37;101229.81;5258393;28;20017;-82
2022/04/19 04:25:50;;;;;;;22.90;14.17;;;;;;;5.16;73.45;101228.97;5258451;28;20040;-82
2022/04/19 04:29:36;;;;;;;;;;;;;;;;;;;;;
2022/04/19 04:32:26;;;;;;;26.52;15.20;;;;;;;5.17;73.58;101242.75;5153688;28;20045;-82
2022/04/19 04:36:03;;;;;;;;;;;;;;;;;;;;;
2022/04/19 04:38:35;;;;;;;23.13;15.13;;;;;;;5.11;73.34;101228.03;5076814;29;20045;-82
2022/04/19 04:41:06;;;;;;;21.50;15.17;;;;;;;5.11;73.75;101228.03;5076872;29;20534;-82
2022/04/19 04:43:39;;;;;;;21.10;14.50;;;;;;;5.11;73.95;101241.81;5076803;29;20458;-82
2022/04/19 04:51:51;;;;;;;17.25;13.85;;;;;;;5.06;74.29;101237.44;5075534;29;20033;-83
2022/04/19 04:54:25;;;;;;;21.73;15.30;;;;;;;5.10;74.30;101246.97;5059122;29;20541;-84
2022/04/19 04:56:57;;;;;;;20.20;13.95;;;;;;;5.05;74.27;101233.94;5074251;29;20377;-82
2022/04/19 04:59:29;;;;;;;19.37;14.33;;;;;;;5.18;74.09;101247.09;5074876;29;20037;-81
2022/04/19 05:02:01;;;;;;;16.20;14.15;;;;;;;5.20;73.69;101248.88;5058572;29;20519;-83
2022/04/19 05:04:33;;;;;;;26.23;13.27;;;;;;;5.25;73.10;101242.06;5073580;29;20044;-83
2022/04/19 05:07:04;;;;;;;19.75;13.90;;;;;;;5.22;73.21;101246.31;5082699;29;20037;-83
2022/04/19 05:09:36;;;;;;;22.83;14.67;;;;;;;5.31;73.76;101243.84;5137090;29;20078;-83
2022/04/19 05:12:08;;;;;;;17.67;13.23;;;;;;;5.38;73.31;101255.19;5152375;29;20035;-83
2022/04/19 05:14:39;;;;;;;20.02;14.68;;;;;;;5.33;73.16;101238.72;5183656;28;20124;-82
2022/04/19 05:17:10;;;;;;;20.07;14.10;;;;;;;5.40;73.48;101240.56;5216376;28;20022;-83
2022/04/19 05:19:42;;;;;;;23.53;15.47;;;;;;;5.41;73.57;101243.19;5215889;28;20595;-81
2022/04/19 05:22:13;;;;;;;21.00;13.87;;;;;;;5.52;72.88;101256.25;5224083;28;20029;-82
2022/04/19 05:24:44;;;;;;;21.43;14.50;;;;;;;5.42;73.00;101242.31;5231601;28;20049;-81
2022/04/19 05:27:16;;;;;;;21.00;15.27;;;;;;;5.64;73.10;101260.75;5232387;28;20085;-83
2022/04/19 05:29:47;;;;;;;18.27;13.83;;;;;;;5.61;72.74;101253.81;5230572;28;20025;-81
2022/04/19 05:32:20;;;;;;;22.73;14.77;;;;;;;5.76;71.69;101249.72;5229735;28;20029;-83
2022/04/19 05:34:51;;;;;;;;;;;;;;;5.82;70.52;101267.91;5228280;28;20021;-81
2022/04/19 05:37:23;;;;;;;17.30;14.20;;;;;;;5.96;71.38;101257.78;5233720;28;19920;-83
2022/04/19 05:39:54;;;;;;;23.43;14.43;;;;;;;6.02;70.69;101258.75;5221372;28;20148;-82
2022/04/19 05:42:26;;;;;;;19.10;14.77;;;;;;;6.02;70.65;101250.09;5218160;28;20044;-82
2022/04/19 05:44:57;;;;;;;21.03;15.60;;;;;;;6.12;70.10;101251.13;5221372;28;20034;-82
2022/04/19 05:47:29;;;;;;;18.20;14.30;;;;;;;6.23;69.87;101248.66;5218880;28;20033;-83
2022/04/19 05:50:00;;;;;;;20.00;14.07;;;;;;;6.36;69.48;101237.63;5220409;28;20115;-82
2022/04/19 05:52:31;;;;;;;19.17;14.90;;;;;;;6.52;69.43;101242.09;5218108;28;20033;-83
2022/04/19 05:55:05;;;;;;;20.47;13.40;;;;;;;6.76;67.70;101256.16;5239185;28;20132;-83
2022/04/19 05:57:36;;;;;;;17.95;14.00;;;;;;;6.98;67.12;101259.00;5238080;28;20080;-82
2022/04/19 06:00:08;;;;;;;19.07;14.47;;;;;;;7.08;65.26;101247.84;5219526;28;20496;-83
2022/04/19 06:05:30;;;;;;;19.02;13.77;;;;;;;7.48;63.80;101261.13;5236317;28;20504;-82
2022/04/19 06:08:01;;;;;;;18.77;14.87;;;;;;;7.65;63.98;101267.31;5235759;28;20057;-82
2022/04/19 06:10:33;;;;;;;16.07;13.23;;;;;;;7.70;63.94;101269.09;5236252;28;20056;-83
2022/04/19 06:13:04;;;;;;;17.97;14.33;;;;;;;7.80;63.83;101271.75;5237103;28;20038;-84
2022/04/19 06:15:37;;;;;;;17.37;13.00;;;;;;;7.95;63.93;101278.78;5238189;28;20036;-83
2022/04/19 06:18:09;;;;;;;22.40;13.13;;;;;;;8.06;62.93;101275.34;5242398;28;20031;-83
2022/04/19 06:20:40;;;;;;;27.43;14.03;;;;;;;8.21;62.39;101272.81;5240835;28;20195;-84
2022/04/19 06:23:12;;;;;;;19.53;12.80;;;;;;;8.33;60.86;101270.28;5239175;28;20056;-84
2022/04/19 06:25:43;;;;;;;15.50;13.17;;;;;;;8.44;61.62;101269.53;5239705;28;20099;-84
2022/04/19 06:28:17;;;;;;;16.37;13.00;;;;;;;8.55;60.17;101273.88;5239078;28;20104;-83
2022/04/19 06:30:49;;;;;;;18.77;13.00;;;;;;;8.69;60.04;101273.91;5221880;28;20445;-83
2022/04/19 06:33:20;;;;;;;16.77;12.40;;;;;;;8.86;58.82;101276.56;5237678;28;20053;-83
2022/04/19 06:35:51;;;;;;;22.03;13.50;;;;;;;9.02;58.23;101272.25;5237692;28;20216;-84
2022/04/19 06:38:23;;;;;;;17.30;13.50;;;;;;;9.15;57.44;101278.34;5236011;28;20177;-83
2022/04/19 06:40:54;;;;;;;15.67;12.63;;;;;;;9.31;58.27;101274.03;5235150;28;20128;-82
2022/04/19 06:43:26;;;;;;;15.53;12.30;;;;;;;9.52;57.46;101280.09;5234946;28;20030;-82
2022/04/19 06:45:57;;;;;;;17.90;13.37;;;;;;;9.74;56.25;101265.31;5236468;28;20021;-83
2022/04/19 06:48:29;;;;;;;19.00;13.10;;;;;;;9.90;55.78;101271.34;5218653;28;20018;-83
2022/04/19 06:51:01;;;;;;;14.73;11.17;;;;;;;10.14;54.10;101273.03;5218082;28;20068;-83
2022/04/19 06:53:32;;;;;;;16.63;13.03;;;;;;;10.34;54.37;101280.81;5234704;28;20405;-83
2022/04/19 06:56:04;;;;;;;20.60;13.10;;;;;;;10.54;52.78;101284.19;5235110;28;20497;-83
2022/04/19 06:58:36;;;;;;;14.00;12.05;;;;;;;10.73;53.33;101279.75;5234607;28;20026;-83
2022/04/19 07:01:08;;;;;;;19.50;13.17;;;;;;;10.89;52.19;101272.69;5234362;28;20423;-83
2022/04/19 07:03:39;;;;;;;15.32;11.68;;;;;;;10.96;52.90;101281.34;5234703;28;20053;-82
2022/04/19 07:06:10;;;;;;;16.50;11.57;;;;;;;11.16;51.68;101278.63;5235721;28;20330;-83
2022/04/19 07:08:42;;;;;;;17.03;11.43;;;;;;;11.25;50.45;101286.41;5235428;28;20536;-81
2022/04/19 07:11:17;;;;;;;16.57;12.03;;;;;;;11.37;50.07;101288.03;5235500;28;20052;-82
2022/04/19 07:13:49;;;;;;;16.73;11.82;;;;;;;11.52;49.99;101292.25;5236337;28;20064;-82
2022/04/19 07:16:20;;;;;;;19.87;12.20;;;;;;;11.65;49.91;101282.56;5221023;28;20742;-82
2022/04/19 07:18:52;;;;;;;15.30;11.83;;;;;;;11.77;49.40;101274.63;5240294;28;20357;-83
2022/04/19 07:27:05;;;;;;;16.85;12.18;;;;;;;12.49;49.16;101285.16;5239256;28;20046;-82
2022/04/19 07:29:36;;;;;;;14.93;11.20;;;;;;;12.63;49.03;101288.47;5221596;28;20045;-81
2022/04/19 07:32:08;;;;;;;16.00;11.47;;;;;;;12.75;47.19;101288.31;5239155;28;20025;-83
2022/04/19 07:34:39;;;;;;;14.07;9.87;;;;;;;12.84;46.21;101295.16;5222118;28;20037;-83
2022/04/19 07:37:11;;;;;;;16.20;9.90;;;;;;;12.97;46.30;101293.22;5239007;28;20087;-82
2022/04/19 07:39:42;;;;;;;21.92;11.18;;;;;;;13.09;44.75;101300.06;5238998;28;20071;-81
2022/04/19 07:42:14;;;;;;;13.20;10.33;;;;;;;13.21;45.06;101294.59;5239316;28;20465;-80
2022/04/19 07:44:45;;;;;;;16.27;11.60;;;;;;;13.41;45.24;101294.34;5239122;28;20044;-80
2022/04/19 07:47:18;;;;;;;15.33;10.93;;;;;;;13.65;45.48;101294.78;5243059;28;20108;-83
2022/04/19 07:49:49;;;;;;;14.45;10.50;;;;;;;13.63;44.19;101296.59;5249549;28;20101;-81
2022/04/19 07:52:21;;;;;;;14.13;10.03;;;;;;;13.80;43.11;101299.78;5244574;28;20022;-83
2022/04/19 07:54:52;;;;;;;16.83;10.27;;;;;;;13.95;42.93;101303.00;5247477;28;20095;-81
2022/04/19 07:57:23;;;;;;;16.83;10.47;;;;;;;14.14;42.84;101303.53;5243593;28;20029;-80
2022/04/19 07:59:55;;;;;;;12.23;8.77;;;;;;;14.17;42.12;101293.00;5241540;28;20029;-82
2022/04/19 08:02:28;;;;;;;14.53;9.40;;;;;;;14.22;41.21;101305.09;5241124;28;20049;-85
2022/04/19 08:04:59;;;;;;;16.50;9.80;;;;;;;14.28;42.00;101301.50;5240014;28;20035;-83
2022/04/19 08:07:31;;;;;;;14.70;8.83;;;;;;;14.48;41.31;101310.72;5239860;28;20025;-84
2022/04/19 08:10:03;;;;;;;14.97;9.40;;;;;;;14.61;41.51;101303.50;5238916;28;20041;-82
2022/04/19 08:12:34;;;;;;;15.70;9.50;;;;;;;14.62;41.23;101303.47;5238242;28;20055;-85
2022/04/19 08:15:06;;;;;;;12.40;9.47;;;;;;;14.77;41.37;101294.38;5220966;28;20037;-83
2022/04/19 08:17:38;;;;;;;12.67;9.53;;;;;;;14.75;40.43;101296.19;5220181;28;20033;-82
2022/04/19 08:20:13;;;;;;;15.23;9.82;;;;;;;14.97;40.78;101286.03;5238204;28;20116;-82
2022/04/19 08:22:47;;;;;;;10.80;8.57;;;;;;;15.29;40.51;101293.19;5238730;28;20025;-81
2022/04/19 08:25:19;;;;;;;12.10;9.05;;;;;;;15.23;39.32;101280.19;5237786;28;20056;-83
2022/04/19 08:27:51;;;;;;;10.90;8.57;;;;;;;15.36;39.40;101288.66;5237548;28;20021;-82
2022/04/19 08:30:22;;;;;;;;;;;;;;;15.52;39.69;101294.38;5238606;28;20022;-83
2022/04/19 08:32:54;;;;;;;11.45;8.23;;;;;;;15.51;38.00;101292.66;5237289;28;19917;-82
2022/04/19 08:35:26;;;;;;;11.67;7.60;;;;;;;15.56;38.26;101279.41;5236559;28;20022;-83
2022/04/19 08:37:57;;;;;;;11.30;7.90;;;;;;;15.69;38.14;101286.91;5237031;28;20571;-85
2022/04/19 08:40:32;;;;;;;11.70;8.20;;;;;;;15.78;37.21;101279.75;5218865;28;20530;-82
2022/04/19 08:43:03;;;;;;;10.43;6.97;;;;;;;15.97;37.45;101280.06;5218576;28;20164;-84
2022/04/19 08:45:35;;;;;;;13.70;9.20;;;;;;;16.02;36.93;101284.31;5236799;28;20034;-82
2022/04/19 08:48:09;;;;;;;10.87;6.80;;;;;;;16.22;36.48;101291.66;5236526;28;20033;-81
2022/04/19 08:50:45;;;;;;;11.30;7.05;;;;;;;16.29;36.31;101280.94;5236983;28;20030;-83
2022/04/19 08:58:57;;;;;;;11.32;7.20;;;;;;;16.84;36.14;101284.59;5235771;28;20037;-83
2022/04/19 09:01:29;;;;;;;9.20;6.77;;;;;;;16.96;35.36;101278.09;5236388;28;20033;-83
2022/04/19 09:04:04;;;;;;;10.85;6.35;;;;;;;17.13;34.33;101281.06;5236039;28;20479;-82
2022/04/19 09:06:54;;;;;;;10.55;6.03;;;;;;;17.28;34.77;101287.59;5236490;28;20036;-82
2022/04/19 09:09:30;;;;;;;10.20;6.47;;;;;;;17.52;35.19;101282.44;5236828;28;20029;-82
2022/04/19 09:12:12;;;;;;;11.50;6.85;;;;;;;17.79;35.29;101277.09;5237005;28;20038;-82
2022/04/19 09:14:58;;;;;;;11.43;7.78;;;;;;;17.79;34.16;101285.91;5236763;28;20136;-83
2022/04/19 09:17:32;;;;;;;10.77;6.68;;;;;;;17.63;32.93;101269.75;5236226;28;20379;-81
2022/04/19 09:20:15;;;;;;;8.63;7.05;;;;;;;17.76;33.10;101270.19;5236554;28;20108;-83
2022/04/19 09:22:51;;;;;;;9.55;6.82;;;;;;;18.16;33.15;101276.69;5236673;28;20037;-82
2022/04/19 09:25:24;;;;;;;12.05;7.35;;;;;;;18.77;31.88;101262.06;5235954;28;20017;-81
2022/04/19 09:27:57;;;;;;;9.43;6.70;;;;;;;19.19;31.08;101263.06;5236289;28;20038;-81
2022/04/19 09:30:34;;;;;;;8.18;6.35;;;;;;;20.32;30.20;101259.09;5235468;28;20258;-81
2022/04/19 09:33:05;;;;;;;12.77;6.53;;;;;;;21.18;28.91;101264.75;5235875;28;20037;-82
2022/04/19 09:35:39;;;;;;;9.50;5.77;;;;;;;21.87;27.28;101266.53;5236448;28;20025;-82
2022/04/19 09:38:12;;;;;;;10.07;6.00;;;;;;;22.12;26.67;101263.44;5235039;28;20037;-84
2022/04/19 09:40:44;;;;;;;10.75;6.13;;;;;;;22.17;25.63;101264.06;5235967;28;20029;-82
2022/04/19 09:43:20;;;;;;;9.30;6.03;;;;;;;22.55;25.64;101262.91;5235818;28;20112;-83
2022/04/19 09:45:58;;;;;;;10.65;6.78;;;;;;;22.91;24.86;101262.66;5235329;28;20037;-82
2022/04/19 09:48:37;;;;;;;7.93;5.57;;;;;;;23.08;24.75;101259.03;5235515;28;20117;-82
2022/04/19 09:51:11;;;;;;;8.45;4.95;;;;;;;23.36;23.79;101246.81;5236459;28;20084;-82
2022/04/19 09:53:44;;;;;;;7.68;5.13;;;;;;;23.19;24.77;101254.91;5235617;28;20519;-82
2022/04/19 09:56:17;;;;;;;9.38;6.03;;;;;;;24.01;24.44;101257.06;5218212;28;20116;-81
2022/04/19 09:58:53;;;;;;;8.20;6.20;;;;;;;23.83;23.78;101256.41;5235973;28;20032;-81
2022/04/19 10:09:42;;;;;;;9.73;5.97;;;;;;;26.48;20.61;101247.78;5236148;28;20138;-82
2022/04/19 10:12:16;;;;;;;10.27;6.13;;;;;;;26.04;21.09;101251.84;5235977;28;20029;-83
2022/04/19 10:14:49;;;;;;;9.90;5.68;;;;;;;25.85;20.94;101245.94;5235802;28;20526;-84
2022/04/19 10:17:20;;;;;;;12.02;6.70;;;;;;;25.51;21.50;101247.44;5235863;28;20442;-84
2022/04/19 10:19:52;;;;;;;9.80;6.75;;;;;;;26.29;20.22;101242.91;5236078;28;20144;-83
2022/04/19 10:22:25;;;;;;;8.03;6.30;;;;;;;26.54;20.00;101237.50;5235580;28;20033;-83
2022/04/19 10:24:58;;;;;;;6.85;5.45;;;;;;;26.95;20.35;101247.94;5235424;28;20029;-81
2022/04/19 10:27:33;;;;;;;7.25;5.72;;;;;;;26.44;20.31;101249.00;5236449;28;20033;-82
2022/04/19 10:30:06;;;;;;;7.47;5.70;;;;;;;26.66;20.39;101245.63;5236821;28;20099;-82
2022/04/19 10:32:38;;;;;;;10.02;6.32;;;;;;;26.55;20.05;101247.25;5234771;28;20030;-80
2022/04/19 10:35:10;;;;;;;12.15;6.80;;;;;;;26.63;21.35;101249.34;5235354;28;20130;-83
2022/04/19 10:37:44;;;;;;;11.07;6.80;;;;;;;26.60;20.05;101249.56;5235286;28;20108;-81
2022/04/19 10:40:15;;;;;;;8.88;6.60;;;;;;;26.99;19.68;101241.41;5235159;28;20033;-83
2022/04/19 10:42:48;;;;;;;8.20;6.68;;;;;;;27.92;19.43;101238.72;5235050;28;20040;-82
2022/04/19 10:45:25;;;;;;;9.15;6.82;;;;;;;27.84;18.93;101243.84;5236276;28;20027;-83
2022/04/19 10:47:57;;;;;;;7.88;6.32;;;;;;;27.82;18.37;101246.63;5238063;28;20385;-82
2022/04/19 10:50:33;;;;;;;;;;;;;;;29.61;18.72;101239.25;5240135;28;20036;-83
2022/04/19 10:53:09;;;;;;;11.18;7.28;;;;;;;27.63;18.70;101230.31;5240853;28;20339;-83
2022/04/19 10:55:53;;;;;;;8.20;6.20;;;;;;;27.77;19.14;101232.75;5223641;28;20041;-83
2022/04/19 10:58:40;;;;;;;6.45;4.40;;;;;;;27.80;18.43;101221.78;5242237;28;20029;-84
2022/04/19 11:01:31;;;;;;;9.88;4.82;;;;;;;28.57;17.52;101214.81;5245335;28;20030;-81
2022/04/19 11:04:03;;;;;;;7.82;4.57;;;;;;;28.24;16.66;101203.16;5241265;28;20120;-83
2022/04/19 11:06:40;;;;;;;;;;;;;;;30.26;16.61;101220.97;5244109;28;20063;-81
2022/04/19 11:09:19;;;;;;;7.50;5.15;;;;;;;28.99;16.83;101209.53;5244493;28;20204;-80
2022/04/19 11:12:07;;;;;;;9.05;5.35;;;;;;;29.36;17.61;101206.41;5222989;28;20044;-83
2022/04/19 11:14:41;;;;;;;9.65;6.20;;;;;;;29.40;17.42;101215.94;5236231;28;20025;-83
2022/04/19 11:17:21;;;;;;;13.32;6.10;;;;;;;29.58;17.01;101212.63;5221955;28;20029;-83
2022/04/19 11:19:57;;;;;;;7.72;5.72;;;;;;;30.00;16.56;101202.66;5235571;28;20053;-84
2022/04/19 11:22:51;;;;;;;8.48;6.28;;;;;;;30.39;16.26;101214.53;5235876;28;20060;-82
2022/04/19 11:25:37;;;;;;;10.55;6.35;;;;;;;30.96;16.66;101207.53;5236642;28;20033;-81
2022/04/19 11:28:11;;;;;;;8.63;6.45;;;;;;;30.09;16.45;101209.06;5237125;28;20025;-83
2022/04/19 11:30:44;;;;;;;9.63;7.15;;;;;;;30.06;16.90;101200.41;5236790;28;20104;-85
2022/04/19 11:33:31;;;;;;;10.30;6.88;;;;;;;30.80;17.63;101196.44;5236635;28;20342;-85
2022/04/19 11:36:16;;;;;;;8.23;6.28;;;;;;;30.98;16.17;101194.78;5235427;28;20116;-84
2022/04/19 11:38:49;;;;;;;8.68;7.10;;;;;;;30.62;15.66;101190.91;5235705;28;20623;-84
2022/04/19 11:46:58;;;;;;;13.15;8.10;;;;;;;30.95;15.85;101196.88;5235533;28;20176;-82
2022/04/19 11:49:34;;;;;;;12.80;7.25;;;;;;;31.88;15.32;101199.78;5235587;28;20032;-84
2022/04/19 11:52:11;;;;;;;11.60;7.03;;;;;;;32.11;15.45;101194.88;5235388;28;20034;-84
2022/04/19 11:54:43;;;;;;;11.63;7.85;;;;;;;32.34;15.52;101198.84;5235600;28;20088;-85
2022/04/19 11:57:14;;;;;;;13.75;7.25;;;;;;;30.99;15.17;101191.06;5202535;28;20424;-82
2022/04/19 11:59:52;;;;;;;10.25;6.68;;;;;;;32.90;14.46;101194.16;5235524;28;20017;-82
2022/04/19 12:02:23;;;;;;;7.50;6.03;;;;;;;31.40;15.25;101196.25;5238027;28;20025;-81
2022/04/19 12:04:57;;;;;;;8.10;5.70;;;;;;;32.30;14.24;101197.47;5238358;28;21104;-82
2022/04/19 12:07:30;;;;;;;13.30;6.65;;;;;;;32.51;14.24;101190.94;5239201;28;20109;-84
2022/04/19 12:10:01;;;;;;;8.05;6.68;;;;;;;31.45;14.91;101185.88;5238863;28;20045;-83
2022/04/19 12:12:33;;;;;;;9.20;6.70;;;;;;;31.64;14.70;101185.00;5238397;28;20072;-84
2022/04/19 12:15:05;;;;;;;12.95;7.10;;;;;;;32.82;14.42;101191.41;5239377;28;20029;-84
2022/04/19 12:17:43;;;;;;;10.85;6.47;;;;;;;33.34;14.19;101187.09;5244600;28;20101;-80
2022/04/19 12:20:15;;;;;;;8.68;6.70;;;;;;;33.76;13.26;101187.19;5227021;28;20370;-82
2022/04/19 12:22:48;;;;;;;8.82;6.80;;;;;;;34.25;12.72;101188.41;5246023;28;20029;-82
2022/04/19 12:25:23;;;;;;;10.57;6.47;;;;;;;33.34;13.44;101182.53;5243766;28;20440;-83
2022/04/19 12:27:54;;;;;;;12.70;6.75;;;;;;;33.52;13.32;101182.47;5246365;28;20025;-84
2022/04/19 12:30:28;;;;;;;8.57;6.40;;;;;;;32.40;14.17;101181.22;5228935;28;20033;-83
2022/04/19 12:32:59;;;;;;;10.50;6.75;;;;;;;32.34;14.41;101169.16;5241760;28;20032;-83